sensor_id;sensor_type;location;lat;lon;timestamp;temperature;humidity
5808;DHT22;2930;42.678;23.312;2023-04-25T00:01:05;11.40;95.20
5808;DHT22;2930;42.678;23.312;2023-04-25T00:03:31;11.40;94.90
5808;DHT22;2930;42.678;23.312;2023-04-25T00:05:58;11.30;95.50
5808;DHT22;2930;42.678;23.312;2023-04-25T00:08:29;11.40;96.00
5808;DHT22;2930;42.678;23.312;2023-04-25T00:10:56;11.50;96.90
5808;DHT22;2930;42.678;23.312;2023-04-25T00:13:22;11.50;97.10
5808;DHT22;2930;42.678;23.312;2023-04-25T00:15:47;11.60;97.60
5808;DHT22;2930;42.678;23.312;2023-04-25T00:18:14;11.60;97.90
5808;DHT22;2930;42.678;23.312;2023-04-25T00:20:40;11.70;97.80
5808;DHT22;2930;42.678;23.312;2023-04-25T00:23:06;11.70;97.60
5808;DHT22;2930;42.678;23.312;2023-04-25T00:25:31;11.60;97.10
5808;DHT22;2930;42.678;23.312;2023-04-25T00:27:57;11.70;96.50
5808;DHT22;2930;42.678;23.312;2023-04-25T00:30:23;11.70;96.60
5808;DHT22;2930;42.678;23.312;2023-04-25T00:32:48;11.70;96.80
5808;DHT22;2930;42.678;23.312;2023-04-25T00:35:14;11.70;97.20
5808;DHT22;2930;42.678;23.312;2023-04-25T00:37:40;11.70;97.50
5808;DHT22;2930;42.678;23.312;2023-04-25T00:40:06;11.70;98.10
5808;DHT22;2930;42.678;23.312;2023-04-25T00:42:32;11.70;98.00
5808;DHT22;2930;42.678;23.312;2023-04-25T00:44:58;11.70;98.20
5808;DHT22;2930;42.678;23.312;2023-04-25T00:47:25;11.70;98.50
5808;DHT22;2930;42.678;23.312;2023-04-25T00:49:51;11.60;98.50
5808;DHT22;2930;42.678;23.312;2023-04-25T00:52:19;11.70;98.50
5808;DHT22;2930;42.678;23.312;2023-04-25T00:54:45;11.60;98.50
5808;DHT22;2930;42.678;23.312;2023-04-25T00:57:10;11.50;98.50
5808;DHT22;2930;42.678;23.312;2023-04-25T00:59:37;11.60;98.50
5808;DHT22;2930;42.678;23.312;2023-04-25T01:02:04;11.70;98.50
5808;DHT22;2930;42.678;23.312;2023-04-25T01:04:30;11.70;98.50
5808;DHT22;2930;42.678;23.312;2023-04-25T01:06:56;11.70;98.50
5808;DHT22;2930;42.678;23.312;2023-04-25T01:09:22;11.80;98.50
5808;DHT22;2930;42.678;23.312;2023-04-25T01:11:49;11.80;98.50
5808;DHT22;2930;42.678;23.312;2023-04-25T01:14:15;11.80;98.50
5808;DHT22;2930;42.678;23.312;2023-04-25T01:16:41;11.80;98.50
5808;DHT22;2930;42.678;23.312;2023-04-25T01:19:10;11.80;98.50
5808;DHT22;2930;42.678;23.312;2023-04-25T01:21:39;11.80;98.00
5808;DHT22;2930;42.678;23.312;2023-04-25T01:24:05;11.70;98.10
5808;DHT22;2930;42.678;23.312;2023-04-25T01:26:31;11.70;98.50
5808;DHT22;2930;42.678;23.312;2023-04-25T01:28:58;11.70;98.50
5808;DHT22;2930;42.678;23.312;2023-04-25T01:31:24;11.70;98.50
5808;DHT22;2930;42.678;23.312;2023-04-25T01:33:50;11.60;98.50
5808;DHT22;2930;42.678;23.312;2023-04-25T01:36:18;11.60;98.40
5808;DHT22;2930;42.678;23.312;2023-04-25T01:38:43;11.50;98.50
5808;DHT22;2930;42.678;23.312;2023-04-25T01:41:09;11.50;98.50
5808;DHT22;2930;42.678;23.312;2023-04-25T01:43:35;11.40;98.50
5808;DHT22;2930;42.678;23.312;2023-04-25T01:46:01;11.30;98.50
5808;DHT22;2930;42.678;23.312;2023-04-25T01:48:27;11.20;98.50
5808;DHT22;2930;42.678;23.312;2023-04-25T01:50:52;11.20;98.50
5808;DHT22;2930;42.678;23.312;2023-04-25T01:53:18;11.10;98.50
5808;DHT22;2930;42.678;23.312;2023-04-25T01:55:44;11.10;98.50
5808;DHT22;2930;42.678;23.312;2023-04-25T01:58:09;11.00;98.50
5808;DHT22;2930;42.678;23.312;2023-04-25T02:00:37;11.00;98.50
5808;DHT22;2930;42.678;23.312;2023-04-25T02:03:04;10.90;98.50
5808;DHT22;2930;42.678;23.312;2023-04-25T02:05:39;10.70;98.50
5808;DHT22;2930;42.678;23.312;2023-04-25T02:08:09;10.60;98.50
5808;DHT22;2930;42.678;23.312;2023-04-25T02:10:35;10.50;98.50
5808;DHT22;2930;42.678;23.312;2023-04-25T02:13:01;10.50;98.50
5808;DHT22;2930;42.678;23.312;2023-04-25T02:15:27;10.60;98.50
5808;DHT22;2930;42.678;23.312;2023-04-25T02:17:53;10.60;98.50
5808;DHT22;2930;42.678;23.312;2023-04-25T02:20:21;10.60;98.50
5808;DHT22;2930;42.678;23.312;2023-04-25T02:22:47;10.70;98.50
5808;DHT22;2930;42.678;23.312;2023-04-25T02:25:12;10.70;98.50
5808;DHT22;2930;42.678;23.312;2023-04-25T02:27:38;10.70;98.50
5808;DHT22;2930;42.678;23.312;2023-04-25T02:30:05;10.70;98.50
5808;DHT22;2930;42.678;23.312;2023-04-25T02:32:32;10.70;98.50
5808;DHT22;2930;42.678;23.312;2023-04-25T02:34:59;10.60;98.50
5808;DHT22;2930;42.678;23.312;2023-04-25T02:37:30;10.60;98.50
5808;DHT22;2930;42.678;23.312;2023-04-25T02:39:55;10.60;98.50
5808;DHT22;2930;42.678;23.312;2023-04-25T02:42:21;10.50;98.50
5808;DHT22;2930;42.678;23.312;2023-04-25T02:44:47;10.60;98.50
5808;DHT22;2930;42.678;23.312;2023-04-25T02:47:12;10.50;98.50
5808;DHT22;2930;42.678;23.312;2023-04-25T02:49:38;10.50;98.50
5808;DHT22;2930;42.678;23.312;2023-04-25T02:52:04;10.40;98.50
5808;DHT22;2930;42.678;23.312;2023-04-25T02:54:30;10.30;98.50
5808;DHT22;2930;42.678;23.312;2023-04-25T02:56:56;10.30;98.50
5808;DHT22;2930;42.678;23.312;2023-04-25T02:59:21;10.30;98.50
5808;DHT22;2930;42.678;23.312;2023-04-25T03:01:47;10.20;98.50
5808;DHT22;2930;42.678;23.312;2023-04-25T03:04:12;10.20;98.50
5808;DHT22;2930;42.678;23.312;2023-04-25T03:06:38;10.20;98.50
5808;DHT22;2930;42.678;23.312;2023-04-25T03:09:04;10.20;98.50
5808;DHT22;2930;42.678;23.312;2023-04-25T03:11:29;10.20;98.50
5808;DHT22;2930;42.678;23.312;2023-04-25T03:13:55;10.30;98.50
5808;DHT22;2930;42.678;23.312;2023-04-25T03:16:21;10.30;98.50
5808;DHT22;2930;42.678;23.312;2023-04-25T03:18:47;10.40;98.50
5808;DHT22;2930;42.678;23.312;2023-04-25T03:21:13;10.40;98.50
5808;DHT22;2930;42.678;23.312;2023-04-25T03:23:38;10.40;98.50
5808;DHT22;2930;42.678;23.312;2023-04-25T03:26:04;10.40;98.50
5808;DHT22;2930;42.678;23.312;2023-04-25T03:28:30;10.40;98.50
5808;DHT22;2930;42.678;23.312;2023-04-25T03:30:56;10.50;98.50
5808;DHT22;2930;42.678;23.312;2023-04-25T03:33:22;10.50;98.50
5808;DHT22;2930;42.678;23.312;2023-04-25T03:35:47;10.40;98.50
5808;DHT22;2930;42.678;23.312;2023-04-25T03:38:13;10.40;98.50
5808;DHT22;2930;42.678;23.312;2023-04-25T03:40:38;10.40;98.50
5808;DHT22;2930;42.678;23.312;2023-04-25T03:43:04;10.40;98.50
5808;DHT22;2930;42.678;23.312;2023-04-25T03:45:30;10.50;98.50
5808;DHT22;2930;42.678;23.312;2023-04-25T03:47:56;10.50;98.50
5808;DHT22;2930;42.678;23.312;2023-04-25T03:50:21;10.50;98.50
5808;DHT22;2930;42.678;23.312;2023-04-25T03:52:47;10.50;98.50
5808;DHT22;2930;42.678;23.312;2023-04-25T03:55:13;10.50;98.50
5808;DHT22;2930;42.678;23.312;2023-04-25T03:57:38;10.50;98.50
5808;DHT22;2930;42.678;23.312;2023-04-25T04:00:05;10.60;98.50
5808;DHT22;2930;42.678;23.312;2023-04-25T04:02:31;10.60;98.50
5808;DHT22;2930;42.678;23.312;2023-04-25T04:04:58;10.70;98.50
5808;DHT22;2930;42.678;23.312;2023-04-25T04:07:24;10.70;98.50
5808;DHT22;2930;42.678;23.312;2023-04-25T04:09:49;10.80;98.50
5808;DHT22;2930;42.678;23.312;2023-04-25T04:12:15;10.90;98.50
5808;DHT22;2930;42.678;23.312;2023-04-25T04:14:41;11.00;98.50
5808;DHT22;2930;42.678;23.312;2023-04-25T04:17:06;11.00;98.50
5808;DHT22;2930;42.678;23.312;2023-04-25T04:19:32;11.10;98.50
5808;DHT22;2930;42.678;23.312;2023-04-25T04:21:58;11.10;98.50
5808;DHT22;2930;42.678;23.312;2023-04-25T04:24:23;11.10;98.50
5808;DHT22;2930;42.678;23.312;2023-04-25T04:26:49;11.20;98.50
5808;DHT22;2930;42.678;23.312;2023-04-25T04:29:16;11.20;98.50
5808;DHT22;2930;42.678;23.312;2023-04-25T04:31:50;11.20;98.50
5808;DHT22;2930;42.678;23.312;2023-04-25T04:34:18;11.30;98.50
5808;DHT22;2930;42.678;23.312;2023-04-25T04:36:44;11.30;98.50
5808;DHT22;2930;42.678;23.312;2023-04-25T04:39:13;11.30;98.50
5808;DHT22;2930;42.678;23.312;2023-04-25T04:41:39;11.30;98.50
5808;DHT22;2930;42.678;23.312;2023-04-25T04:44:05;11.40;98.50
5808;DHT22;2930;42.678;23.312;2023-04-25T04:46:32;11.40;98.50
5808;DHT22;2930;42.678;23.312;2023-04-25T04:49:04;11.40;98.50
5808;DHT22;2930;42.678;23.312;2023-04-25T04:51:30;11.40;98.50
5808;DHT22;2930;42.678;23.312;2023-04-25T04:53:56;11.50;98.50
5808;DHT22;2930;42.678;23.312;2023-04-25T04:56:24;11.60;98.50
5808;DHT22;2930;42.678;23.312;2023-04-25T04:58:51;11.60;98.50
5808;DHT22;2930;42.678;23.312;2023-04-25T05:01:17;11.60;98.50
5808;DHT22;2930;42.678;23.312;2023-04-25T05:03:43;11.60;98.50
5808;DHT22;2930;42.678;23.312;2023-04-25T05:06:09;11.60;98.50
5808;DHT22;2930;42.678;23.312;2023-04-25T05:08:35;11.70;98.50
5808;DHT22;2930;42.678;23.312;2023-04-25T05:11:01;11.70;98.50
5808;DHT22;2930;42.678;23.312;2023-04-25T05:13:27;11.70;98.20
5808;DHT22;2930;42.678;23.312;2023-04-25T05:15:53;11.70;98.40
5808;DHT22;2930;42.678;23.312;2023-04-25T05:18:18;11.70;98.50
5808;DHT22;2930;42.678;23.312;2023-04-25T05:20:44;11.80;98.50
5808;DHT22;2930;42.678;23.312;2023-04-25T05:23:10;11.80;98.30
5808;DHT22;2930;42.678;23.312;2023-04-25T05:25:35;11.80;97.90
5808;DHT22;2930;42.678;23.312;2023-04-25T05:28:01;11.80;98.40
5808;DHT22;2930;42.678;23.312;2023-04-25T05:30:27;11.80;98.50
5808;DHT22;2930;42.678;23.312;2023-04-25T05:32:52;11.80;98.50
5808;DHT22;2930;42.678;23.312;2023-04-25T05:35:18;11.90;98.50
5808;DHT22;2930;42.678;23.312;2023-04-25T05:37:44;11.90;98.50
5808;DHT22;2930;42.678;23.312;2023-04-25T05:40:10;12.00;98.50
5808;DHT22;2930;42.678;23.312;2023-04-25T05:42:35;12.10;98.50
5808;DHT22;2930;42.678;23.312;2023-04-25T05:45:02;12.10;98.50
5808;DHT22;2930;42.678;23.312;2023-04-25T05:47:28;12.20;98.50
5808;DHT22;2930;42.678;23.312;2023-04-25T05:49:53;12.30;98.20
5808;DHT22;2930;42.678;23.312;2023-04-25T05:52:19;12.30;98.00
5808;DHT22;2930;42.678;23.312;2023-04-25T05:54:45;12.30;97.50
5808;DHT22;2930;42.678;23.312;2023-04-25T05:57:24;12.40;97.60
5808;DHT22;2930;42.678;23.312;2023-04-25T05:59:51;12.40;97.40
5808;DHT22;2930;42.678;23.312;2023-04-25T06:02:17;12.50;97.40
5808;DHT22;2930;42.678;23.312;2023-04-25T06:04:43;12.50;97.30
5808;DHT22;2930;42.678;23.312;2023-04-25T06:07:09;12.50;96.80
5808;DHT22;2930;42.678;23.312;2023-04-25T06:09:35;12.50;96.60
5808;DHT22;2930;42.678;23.312;2023-04-25T06:12:00;12.50;96.70
5808;DHT22;2930;42.678;23.312;2023-04-25T06:14:27;12.50;96.30
5808;DHT22;2930;42.678;23.312;2023-04-25T06:16:52;12.50;95.50
5808;DHT22;2930;42.678;23.312;2023-04-25T06:19:18;12.40;95.90
5808;DHT22;2930;42.678;23.312;2023-04-25T06:21:44;12.50;96.50
5808;DHT22;2930;42.678;23.312;2023-04-25T06:24:10;12.50;96.50
5808;DHT22;2930;42.678;23.312;2023-04-25T06:26:35;12.50;96.60
5808;DHT22;2930;42.678;23.312;2023-04-25T06:29:01;12.60;96.50
5808;DHT22;2930;42.678;23.312;2023-04-25T06:31:27;12.60;96.00
5808;DHT22;2930;42.678;23.312;2023-04-25T06:33:54;12.60;95.90
5808;DHT22;2930;42.678;23.312;2023-04-25T06:36:20;12.70;95.90
5808;DHT22;2930;42.678;23.312;2023-04-25T06:38:50;12.80;95.90
5808;DHT22;2930;42.678;23.312;2023-04-25T06:41:17;12.90;95.90
5808;DHT22;2930;42.678;23.312;2023-04-25T06:43:42;13.10;95.70
5808;DHT22;2930;42.678;23.312;2023-04-25T06:46:08;13.20;95.40
5808;DHT22;2930;42.678;23.312;2023-04-25T06:48:34;13.40;93.90
5808;DHT22;2930;42.678;23.312;2023-04-25T06:50:59;13.50;93.40
5808;DHT22;2930;42.678;23.312;2023-04-25T06:53:25;13.60;92.10
5808;DHT22;2930;42.678;23.312;2023-04-25T06:55:50;13.60;91.30
5808;DHT22;2930;42.678;23.312;2023-04-25T06:58:17;13.60;90.60
5808;DHT22;2930;42.678;23.312;2023-04-25T07:00:43;13.70;91.10
5808;DHT22;2930;42.678;23.312;2023-04-25T07:03:08;13.80;90.60
5808;DHT22;2930;42.678;23.312;2023-04-25T07:05:35;13.80;90.30
5808;DHT22;2930;42.678;23.312;2023-04-25T07:08:01;13.90;89.90
5808;DHT22;2930;42.678;23.312;2023-04-25T07:10:27;13.90;89.70
5808;DHT22;2930;42.678;23.312;2023-04-25T07:12:52;13.90;90.20
5808;DHT22;2930;42.678;23.312;2023-04-25T07:15:18;14.00;90.60
5808;DHT22;2930;42.678;23.312;2023-04-25T07:17:43;14.10;90.70
5808;DHT22;2930;42.678;23.312;2023-04-25T07:20:09;14.20;90.90
5808;DHT22;2930;42.678;23.312;2023-04-25T07:22:35;14.30;89.50
5808;DHT22;2930;42.678;23.312;2023-04-25T07:25:01;14.30;89.10
5808;DHT22;2930;42.678;23.312;2023-04-25T07:27:27;14.30;88.10
5808;DHT22;2930;42.678;23.312;2023-04-25T07:29:53;14.40;88.40
5808;DHT22;2930;42.678;23.312;2023-04-25T07:32:19;14.40;89.20
5808;DHT22;2930;42.678;23.312;2023-04-25T07:34:45;14.60;89.50
5808;DHT22;2930;42.678;23.312;2023-04-25T07:37:10;14.70;89.20
5808;DHT22;2930;42.678;23.312;2023-04-25T07:39:36;14.80;89.00
5808;DHT22;2930;42.678;23.312;2023-04-25T07:42:03;15.00;88.70
5808;DHT22;2930;42.678;23.312;2023-04-25T07:44:29;15.10;87.20
5808;DHT22;2930;42.678;23.312;2023-04-25T07:46:56;15.20;87.50
5808;DHT22;2930;42.678;23.312;2023-04-25T07:49:21;15.40;88.00
5808;DHT22;2930;42.678;23.312;2023-04-25T07:51:47;15.50;86.40
5808;DHT22;2930;42.678;23.312;2023-04-25T07:54:14;15.50;86.40
5808;DHT22;2930;42.678;23.312;2023-04-25T07:56:41;15.50;85.90
5808;DHT22;2930;42.678;23.312;2023-04-25T07:59:06;15.60;86.20
5808;DHT22;2930;42.678;23.312;2023-04-25T08:01:33;15.70;86.20
5808;DHT22;2930;42.678;23.312;2023-04-25T08:03:59;15.80;86.40
5808;DHT22;2930;42.678;23.312;2023-04-25T08:06:25;15.90;85.90
5808;DHT22;2930;42.678;23.312;2023-04-25T08:08:51;16.00;84.80
5808;DHT22;2930;42.678;23.312;2023-04-25T08:11:16;16.10;85.00
5808;DHT22;2930;42.678;23.312;2023-04-25T08:13:42;16.30;84.60
5808;DHT22;2930;42.678;23.312;2023-04-25T08:16:08;16.50;83.10
5808;DHT22;2930;42.678;23.312;2023-04-25T08:18:33;16.60;82.20
5808;DHT22;2930;42.678;23.312;2023-04-25T08:20:59;16.60;80.80
5808;DHT22;2930;42.678;23.312;2023-04-25T08:23:25;16.60;80.30
5808;DHT22;2930;42.678;23.312;2023-04-25T08:25:51;16.70;81.40
5808;DHT22;2930;42.678;23.312;2023-04-25T08:28:16;16.80;79.30
5808;DHT22;2930;42.678;23.312;2023-04-25T08:30:42;16.90;77.70
5808;DHT22;2930;42.678;23.312;2023-04-25T08:33:08;17.00;78.40
5808;DHT22;2930;42.678;23.312;2023-04-25T08:35:33;17.00;77.70
5808;DHT22;2930;42.678;23.312;2023-04-25T08:37:59;16.90;77.40
5808;DHT22;2930;42.678;23.312;2023-04-25T08:40:27;16.90;77.80
5808;DHT22;2930;42.678;23.312;2023-04-25T08:42:57;17.00;79.30
5808;DHT22;2930;42.678;23.312;2023-04-25T08:45:23;16.80;80.20
5808;DHT22;2930;42.678;23.312;2023-04-25T08:47:51;16.60;80.30
5808;DHT22;2930;42.678;23.312;2023-04-25T08:50:18;16.50;81.00
5808;DHT22;2930;42.678;23.312;2023-04-25T08:52:47;16.40;81.00
5808;DHT22;2930;42.678;23.312;2023-04-25T08:55:14;16.40;82.60
5808;DHT22;2930;42.678;23.312;2023-04-25T08:57:41;16.50;83.10
5808;DHT22;2930;42.678;23.312;2023-04-25T09:00:11;16.70;81.70
5808;DHT22;2930;42.678;23.312;2023-04-25T09:02:42;16.90;81.00
5808;DHT22;2930;42.678;23.312;2023-04-25T09:05:09;17.20;81.90
5808;DHT22;2930;42.678;23.312;2023-04-25T09:07:37;17.50;80.90
5808;DHT22;2930;42.678;23.312;2023-04-25T09:10:03;17.80;80.40
5808;DHT22;2930;42.678;23.312;2023-04-25T09:12:29;18.00;78.20
5808;DHT22;2930;42.678;23.312;2023-04-25T09:15:10;18.20;78.10
5808;DHT22;2930;42.678;23.312;2023-04-25T09:17:36;18.50;77.20
5808;DHT22;2930;42.678;23.312;2023-04-25T09:20:13;18.80;77.20
5808;DHT22;2930;42.678;23.312;2023-04-25T09:22:40;19.20;75.20
5808;DHT22;2930;42.678;23.312;2023-04-25T09:25:10;19.50;74.70
5808;DHT22;2930;42.678;23.312;2023-04-25T09:27:52;19.90;74.60
5808;DHT22;2930;42.678;23.312;2023-04-25T09:30:18;20.00;72.80
5808;DHT22;2930;42.678;23.312;2023-04-25T09:32:44;20.00;72.70
5808;DHT22;2930;42.678;23.312;2023-04-25T09:35:10;19.90;73.10
5808;DHT22;2930;42.678;23.312;2023-04-25T09:37:37;19.70;73.50
5808;DHT22;2930;42.678;23.312;2023-04-25T09:40:05;19.40;72.00
5808;DHT22;2930;42.678;23.312;2023-04-25T09:42:32;19.40;72.20
5808;DHT22;2930;42.678;23.312;2023-04-25T09:45:00;19.50;72.30
5808;DHT22;2930;42.678;23.312;2023-04-25T09:47:27;20.00;72.90
5808;DHT22;2930;42.678;23.312;2023-04-25T09:49:54;20.30;69.80
5808;DHT22;2930;42.678;23.312;2023-04-25T09:52:24;20.20;67.70
5808;DHT22;2930;42.678;23.312;2023-04-25T09:54:51;20.00;65.20
5808;DHT22;2930;42.678;23.312;2023-04-25T09:57:17;19.70;64.60
5808;DHT22;2930;42.678;23.312;2023-04-25T09:59:45;19.80;66.80
5808;DHT22;2930;42.678;23.312;2023-04-25T10:02:11;20.00;69.60
5808;DHT22;2930;42.678;23.312;2023-04-25T10:04:38;20.20;69.90
5808;DHT22;2930;42.678;23.312;2023-04-25T10:07:08;20.40;70.60
5808;DHT22;2930;42.678;23.312;2023-04-25T10:09:37;20.50;70.80
5808;DHT22;2930;42.678;23.312;2023-04-25T10:12:03;20.40;71.20
5808;DHT22;2930;42.678;23.312;2023-04-25T10:14:32;20.30;71.50
5808;DHT22;2930;42.678;23.312;2023-04-25T10:16:59;20.10;70.60
5808;DHT22;2930;42.678;23.312;2023-04-25T10:19:25;19.30;68.00
5808;DHT22;2930;42.678;23.312;2023-04-25T10:22:03;17.60;76.40
5808;DHT22;2930;42.678;23.312;2023-04-25T10:24:30;16.30;78.60
5808;DHT22;2930;42.678;23.312;2023-04-25T10:26:56;15.40;81.00
5808;DHT22;2930;42.678;23.312;2023-04-25T10:29:26;15.40;81.50
5808;DHT22;2930;42.678;23.312;2023-04-25T10:31:52;15.80;84.90
5808;DHT22;2930;42.678;23.312;2023-04-25T10:34:18;16.60;79.70
5808;DHT22;2930;42.678;23.312;2023-04-25T10:36:49;17.30;80.70
5808;DHT22;2930;42.678;23.312;2023-04-25T10:39:24;18.00;72.30
5808;DHT22;2930;42.678;23.312;2023-04-25T10:41:55;18.60;74.80
5808;DHT22;2930;42.678;23.312;2023-04-25T10:44:21;18.50;71.70
5808;DHT22;2930;42.678;23.312;2023-04-25T10:46:47;18.80;74.90
5808;DHT22;2930;42.678;23.312;2023-04-25T10:52:11;19.70;74.10
5808;DHT22;2930;42.678;23.312;2023-04-25T10:54:53;20.60;72.30
5808;DHT22;2930;42.678;23.312;2023-04-25T10:57:40;20.60;67.60
5808;DHT22;2930;42.678;23.312;2023-04-25T11:00:15;20.60;66.80
5808;DHT22;2930;42.678;23.312;2023-04-25T11:02:47;20.50;68.40
5808;DHT22;2930;42.678;23.312;2023-04-25T11:05:32;20.30;67.20
5808;DHT22;2930;42.678;23.312;2023-04-25T11:07:59;21.00;64.40
5808;DHT22;2930;42.678;23.312;2023-04-25T11:10:26;21.70;62.30
5808;DHT22;2930;42.678;23.312;2023-04-25T11:12:52;22.10;59.20
5808;DHT22;2930;42.678;23.312;2023-04-25T11:15:18;21.80;60.50
5808;DHT22;2930;42.678;23.312;2023-04-25T11:17:44;21.20;60.40
5808;DHT22;2930;42.678;23.312;2023-04-25T11:20:14;20.50;61.50
5808;DHT22;2930;42.678;23.312;2023-04-25T11:22:41;19.80;62.20
5808;DHT22;2930;42.678;23.312;2023-04-25T11:25:08;19.50;62.70
5808;DHT22;2930;42.678;23.312;2023-04-25T11:27:38;19.30;65.20
5808;DHT22;2930;42.678;23.312;2023-04-25T11:30:11;18.80;65.60
5808;DHT22;2930;42.678;23.312;2023-04-25T11:32:38;18.30;66.20
5808;DHT22;2930;42.678;23.312;2023-04-25T11:35:05;17.90;67.20
5808;DHT22;2930;42.678;23.312;2023-04-25T11:37:31;17.90;69.00
5808;DHT22;2930;42.678;23.312;2023-04-25T11:39:57;17.70;69.00
5808;DHT22;2930;42.678;23.312;2023-04-25T11:42:23;17.10;68.70
5808;DHT22;2930;42.678;23.312;2023-04-25T11:44:49;16.60;70.20
5808;DHT22;2930;42.678;23.312;2023-04-25T11:47:15;16.40;70.10
5808;DHT22;2930;42.678;23.312;2023-04-25T11:49:41;15.50;71.10
5808;DHT22;2930;42.678;23.312;2023-04-25T11:52:06;15.00;75.10
5808;DHT22;2930;42.678;23.312;2023-04-25T11:54:35;14.80;78.20
5808;DHT22;2930;42.678;23.312;2023-04-25T11:57:03;14.80;78.30
5808;DHT22;2930;42.678;23.312;2023-04-25T11:59:29;14.90;79.60
5808;DHT22;2930;42.678;23.312;2023-04-25T12:01:55;15.40;79.20
5808;DHT22;2930;42.678;23.312;2023-04-25T12:04:24;16.10;75.70
5808;DHT22;2930;42.678;23.312;2023-04-25T12:06:52;16.80;75.10
5808;DHT22;2930;42.678;23.312;2023-04-25T12:09:27;17.90;72.60
5808;DHT22;2930;42.678;23.312;2023-04-25T12:11:55;18.60;70.50
5808;DHT22;2930;42.678;23.312;2023-04-25T12:14:26;18.60;68.60
5808;DHT22;2930;42.678;23.312;2023-04-25T12:16:54;18.10;67.40
5808;DHT22;2930;42.678;23.312;2023-04-25T12:19:21;17.60;69.20
5808;DHT22;2930;42.678;23.312;2023-04-25T12:21:47;17.30;70.00
5808;DHT22;2930;42.678;23.312;2023-04-25T12:24:15;17.30;71.00
5808;DHT22;2930;42.678;23.312;2023-04-25T12:26:51;17.20;70.40
5808;DHT22;2930;42.678;23.312;2023-04-25T12:29:28;17.40;70.30
5808;DHT22;2930;42.678;23.312;2023-04-25T12:31:55;18.30;69.40
5808;DHT22;2930;42.678;23.312;2023-04-25T12:34:21;19.20;67.50
5808;DHT22;2930;42.678;23.312;2023-04-25T12:36:47;19.10;67.90
5808;DHT22;2930;42.678;23.312;2023-04-25T12:39:22;18.80;70.20
5808;DHT22;2930;42.678;23.312;2023-04-25T12:41:52;18.10;72.70
5808;DHT22;2930;42.678;23.312;2023-04-25T12:44:19;17.70;75.10
5808;DHT22;2930;42.678;23.312;2023-04-25T12:47:04;17.30;76.50
5808;DHT22;2930;42.678;23.312;2023-04-25T12:49:31;17.00;77.30
5808;DHT22;2930;42.678;23.312;2023-04-25T12:51:57;16.90;78.90
5808;DHT22;2930;42.678;23.312;2023-04-25T12:54:23;16.70;79.20
5808;DHT22;2930;42.678;23.312;2023-04-25T12:56:49;16.60;80.90
5808;DHT22;2930;42.678;23.312;2023-04-25T12:59:16;16.50;79.60
5808;DHT22;2930;42.678;23.312;2023-04-25T13:01:41;16.40;80.90
5808;DHT22;2930;42.678;23.312;2023-04-25T13:04:08;16.10;79.80
5808;DHT22;2930;42.678;23.312;2023-04-25T13:06:33;15.80;80.40
5808;DHT22;2930;42.678;23.312;2023-04-25T13:08:59;15.40;80.90
5808;DHT22;2930;42.678;23.312;2023-04-25T13:11:25;14.90;84.20
5808;DHT22;2930;42.678;23.312;2023-04-25T13:13:51;14.60;84.00
5808;DHT22;2930;42.678;23.312;2023-04-25T13:16:17;14.20;86.00
5808;DHT22;2930;42.678;23.312;2023-04-25T13:18:44;14.00;88.90
5808;DHT22;2930;42.678;23.312;2023-04-25T13:21:10;13.90;88.80
5808;DHT22;2930;42.678;23.312;2023-04-25T13:23:37;13.60;89.70
5808;DHT22;2930;42.678;23.312;2023-04-25T13:26:02;13.40;90.20
5808;DHT22;2930;42.678;23.312;2023-04-25T13:28:28;13.20;92.10
5808;DHT22;2930;42.678;23.312;2023-04-25T13:30:54;13.10;91.60
5808;DHT22;2930;42.678;23.312;2023-04-25T13:33:21;12.90;92.00
5808;DHT22;2930;42.678;23.312;2023-04-25T13:35:48;12.80;93.40
5808;DHT22;2930;42.678;23.312;2023-04-25T13:38:23;12.60;93.80
5808;DHT22;2930;42.678;23.312;2023-04-25T13:40:49;12.50;93.90
5808;DHT22;2930;42.678;23.312;2023-04-25T13:43:15;12.40;94.20
5808;DHT22;2930;42.678;23.312;2023-04-25T13:45:41;12.20;96.50
5808;DHT22;2930;42.678;23.312;2023-04-25T13:48:07;12.10;96.70
5808;DHT22;2930;42.678;23.312;2023-04-25T13:50:33;11.90;97.30
5808;DHT22;2930;42.678;23.312;2023-04-25T13:52:58;11.80;97.80
5808;DHT22;2930;42.678;23.312;2023-04-25T13:55:24;11.70;96.90
5808;DHT22;2930;42.678;23.312;2023-04-25T13:57:50;11.80;97.40
5808;DHT22;2930;42.678;23.312;2023-04-25T14:00:16;11.90;97.40
5808;DHT22;2930;42.678;23.312;2023-04-25T14:02:42;12.20;97.30
5808;DHT22;2930;42.678;23.312;2023-04-25T14:05:08;12.70;96.40
5808;DHT22;2930;42.678;23.312;2023-04-25T14:07:34;13.30;93.60
5808;DHT22;2930;42.678;23.312;2023-04-25T14:10:00;13.80;90.30
5808;DHT22;2930;42.678;23.312;2023-04-25T14:12:26;13.90;88.20
5808;DHT22;2930;42.678;23.312;2023-04-25T14:14:52;14.10;87.10
5808;DHT22;2930;42.678;23.312;2023-04-25T14:17:19;14.40;88.10
5808;DHT22;2930;42.678;23.312;2023-04-25T14:19:44;14.70;88.70
5808;DHT22;2930;42.678;23.312;2023-04-25T14:22:13;14.70;86.30
5808;DHT22;2930;42.678;23.312;2023-04-25T14:24:39;14.70;87.20
5808;DHT22;2930;42.678;23.312;2023-04-25T14:27:05;14.90;86.70
5808;DHT22;2930;42.678;23.312;2023-04-25T14:29:31;15.10;86.70
5808;DHT22;2930;42.678;23.312;2023-04-25T14:31:56;15.30;87.90
5808;DHT22;2930;42.678;23.312;2023-04-25T14:34:24;15.40;87.20
5808;DHT22;2930;42.678;23.312;2023-04-25T14:36:51;15.50;85.30
5808;DHT22;2930;42.678;23.312;2023-04-25T14:39:17;15.60;85.90
5808;DHT22;2930;42.678;23.312;2023-04-25T14:41:43;15.70;85.00
5808;DHT22;2930;42.678;23.312;2023-04-25T14:44:08;15.70;83.80
5808;DHT22;2930;42.678;23.312;2023-04-25T14:46:34;15.80;83.00
5808;DHT22;2930;42.678;23.312;2023-04-25T14:49:01;15.80;82.00
5808;DHT22;2930;42.678;23.312;2023-04-25T14:51:26;15.70;81.20
5808;DHT22;2930;42.678;23.312;2023-04-25T14:53:52;15.90;81.70
5808;DHT22;2930;42.678;23.312;2023-04-25T14:56:18;16.00;82.60
5808;DHT22;2930;42.678;23.312;2023-04-25T14:58:44;16.20;83.60
5808;DHT22;2930;42.678;23.312;2023-04-25T15:01:11;16.30;84.80
5808;DHT22;2930;42.678;23.312;2023-04-25T15:03:38;16.40;84.60
5808;DHT22;2930;42.678;23.312;2023-04-25T15:06:05;16.40;83.60
5808;DHT22;2930;42.678;23.312;2023-04-25T15:08:31;16.40;82.50
5808;DHT22;2930;42.678;23.312;2023-04-25T15:10:58;16.30;81.10
5808;DHT22;2930;42.678;23.312;2023-04-25T15:13:25;16.20;79.60
5808;DHT22;2930;42.678;23.312;2023-04-25T15:15:51;16.20;80.60
5808;DHT22;2930;42.678;23.312;2023-04-25T15:18:20;16.30;80.30
5808;DHT22;2930;42.678;23.312;2023-04-25T15:20:50;16.40;80.70
5808;DHT22;2930;42.678;23.312;2023-04-25T15:23:20;16.40;82.30
5808;DHT22;2930;42.678;23.312;2023-04-25T15:25:46;16.40;83.20
5808;DHT22;2930;42.678;23.312;2023-04-25T15:28:12;16.50;84.00
5808;DHT22;2930;42.678;23.312;2023-04-25T15:30:42;16.40;84.10
5808;DHT22;2930;42.678;23.312;2023-04-25T15:33:07;16.40;84.80
5808;DHT22;2930;42.678;23.312;2023-04-25T15:35:33;16.30;84.90
5808;DHT22;2930;42.678;23.312;2023-04-25T15:37:58;16.10;86.00
5808;DHT22;2930;42.678;23.312;2023-04-25T15:40:24;16.00;83.70
5808;DHT22;2930;42.678;23.312;2023-04-25T15:42:52;15.80;84.00
5808;DHT22;2930;42.678;23.312;2023-04-25T15:45:24;15.70;85.30